Time;durP1;ratioP1;P1;durP2;ratioP2;P2;SDS_P1;SDS_P2;PMS_P1;PMS_P2;Temp;Humidity;BMP_temperature;BMP_pressure;BME280_temperature;BME280_humidity;BME280_pressure;Samples;Min_cycle;Max_cycle;Signal;HPM_P1;HPM_P2
2021/08/16 00:01:54;;;;;;;11.57;4.80;;;17.90;99.90;;;;;;4971476;28;20506;-81
2021/08/16 00:04:21;;;;;;;13.25;5.43;;;17.80;99.90;;;;;;4972289;28;20112;-80
2021/08/16 00:06:48;;;;;;;8.70;5.25;;;17.80;99.90;;;;;;4994223;28;20580;-81
2021/08/16 00:09:15;;;;;;;8.35;5.18;;;17.70;99.90;;;;;;4970785;28;20047;-81
2021/08/16 00:11:41;;;;;;;7.68;5.00;;;17.50;99.90;;;;;;4971046;28;20054;-80
2021/08/16 00:14:08;;;;;;;6.70;4.55;;;17.50;99.90;;;;;;4987867;28;20053;-80
2021/08/16 00:16:35;;;;;;;10.77;5.47;;;17.50;99.90;;;;;;4988089;28;20291;-80
2021/08/16 00:19:02;;;;;;;9.57;5.35;;;17.50;99.90;;;;;;4988287;28;20058;-81
2021/08/16 00:21:29;;;;;;;8.63;4.60;;;17.50;99.90;;;;;;4973751;28;20490;-82
2021/08/16 00:23:55;;;;;;;8.68;5.03;;;17.70;99.90;;;;;;4998789;28;20051;-81
2021/08/16 00:26:22;;;;;;;12.63;5.72;;;17.80;99.90;;;;;;4997452;28;20061;-80
2021/08/16 00:28:49;;;;;;;8.85;5.53;;;17.90;99.90;;;;;;5012574;28;20119;-81
2021/08/16 00:31:16;;;;;;;15.48;6.40;;;18.00;99.90;;;;;;4996685;28;20054;-81
2021/08/16 00:33:43;;;;;;;12.55;6.05;;;18.10;99.90;;;;;;4977078;28;20131;-80
2021/08/16 00:36:09;;;;;;;8.85;6.15;;;18.20;99.90;;;;;;4968320;28;20047;-80
2021/08/16 00:38:36;;;;;;;10.95;5.40;;;18.10;99.90;;;;;;4974817;28;20054;-80
2021/08/16 00:41:04;;;;;;;12.63;6.22;;;18.00;99.90;;;;;;4988092;28;20050;-81
2021/08/16 00:43:30;;;;;;;7.55;5.20;;;18.00;99.90;;;;;;4991389;28;20105;-80
2021/08/16 00:45:58;;;;;;;12.30;6.53;;;17.80;99.90;;;;;;4992090;28;20057;-81
2021/08/16 00:48:25;;;;;;;15.25;6.70;;;17.80;99.90;;;;;;4994011;28;20050;-82
2021/08/16 00:50:52;;;;;;;12.45;6.82;;;17.80;99.90;;;;;;4993472;28;20050;-80
2021/08/16 00:53:18;;;;;;;10.88;5.85;;;17.90;99.90;;;;;;4975777;28;20054;-80
2021/08/16 00:55:48;;;;;;;14.88;6.32;;;17.90;99.90;;;;;;4999370;28;20829;-80
2021/08/16 00:58:15;;;;;;;11.30;6.70;;;17.90;99.90;;;;;;4988834;28;20054;-81
2021/08/16 01:00:43;;;;;;;15.02;7.68;;;17.90;99.90;;;;;;4993740;28;20073;-80
2021/08/16 01:03:10;;;;;;;13.85;7.13;;;17.90;99.90;;;;;;4992400;28;20113;-80
2021/08/16 01:05:37;;;;;;;14.38;6.82;;;17.80;99.90;;;;;;4981969;28;20068;-80
2021/08/16 01:08:04;;;;;;;13.18;7.38;;;17.80;99.90;;;;;;4959564;28;20058;-80
2021/08/16 01:10:31;;;;;;;11.75;6.95;;;17.70;99.90;;;;;;4990007;28;20116;-79
2021/08/16 01:12:58;;;;;;;15.45;7.30;;;17.80;99.90;;;;;;4990611;28;20046;-79
2021/08/16 01:15:28;;;;;;;13.35;7.43;;;17.70;99.90;;;;;;4974124;28;20054;-79
2021/08/16 01:17:56;;;;;;;13.30;7.65;;;17.70;99.90;;;;;;4978063;28;20054;-79
2021/08/16 01:20:22;;;;;;;17.05;7.20;;;17.60;99.90;;;;;;4973876;28;20446;-80
2021/08/16 01:22:49;;;;;;;13.23;8.40;;;17.60;99.90;;;;;;4989682;28;20046;-80
2021/08/16 01:25:16;;;;;;;16.30;8.77;;;17.50;99.90;;;;;;4981554;28;20145;-80
2021/08/16 01:27:43;;;;;;;15.98;7.95;;;17.40;99.90;;;;;;4997239;28;20089;-79
2021/08/16 01:30:14;;;;;;;16.17;7.72;;;17.40;99.90;;;;;;4974196;28;20122;-80
2021/08/16 01:32:42;;;;;;;15.10;7.63;;;17.30;99.90;;;;;;4973928;28;20042;-79
2021/08/16 01:35:10;;;;;;;12.77;7.25;;;17.30;99.90;;;;;;5017927;28;20041;-79
2021/08/16 01:37:37;;;;;;;12.68;7.45;;;17.30;99.90;;;;;;5002995;28;20092;-79
2021/08/16 01:40:11;;;;;;;14.30;7.00;;;17.30;99.90;;;;;;5029159;28;20042;-80
2021/08/16 01:42:38;;;;;;;13.88;5.97;;;17.30;99.90;;;;;;4991100;28;20145;-79
2021/08/16 01:45:07;;;;;;;14.90;6.93;;;17.40;99.90;;;;;;4957235;28;20137;-81
2021/08/16 01:47:33;;;;;;;11.15;6.13;;;17.40;99.90;;;;;;4988709;28;20054;-80
2021/08/16 01:50:01;;;;;;;14.68;6.30;;;17.40;99.90;;;;;;4972968;28;20335;-80
2021/08/16 01:52:27;;;;;;;12.00;6.93;;;17.40;99.90;;;;;;4987822;28;20039;-80
2021/08/16 01:54:54;;;;;;;14.60;7.07;;;17.30;99.90;;;;;;4975909;28;20105;-80
2021/08/16 01:57:21;;;;;;;10.23;6.35;;;17.30;99.90;;;;;;4996322;28;20372;-80
2021/08/16 01:59:48;;;;;;;12.80;5.65;;;17.20;99.90;;;;;;4992180;28;20497;-79
2021/08/16 02:02:15;;;;;;;11.30;6.57;;;17.20;99.90;;;;;;4991872;28;20356;-80
2021/08/16 02:04:42;;;;;;;12.82;6.15;;;17.10;99.90;;;;;;4978618;28;20054;-80
2021/08/16 02:07:08;;;;;;;11.27;6.30;;;17.00;99.90;;;;;;4968812;28;20066;-79
2021/08/16 02:09:35;;;;;;;12.48;6.80;;;17.00;99.90;;;;;;5011335;28;20098;-80
2021/08/16 02:12:02;;;;;;;8.75;6.65;;;16.90;99.90;;;;;;4980363;28;20330;-80
2021/08/16 02:14:29;;;;;;;11.52;6.38;;;16.90;99.90;;;;;;4970611;28;20046;-80
2021/08/16 02:16:56;;;;;;;12.15;6.10;;;16.90;99.90;;;;;;4973746;28;20394;-80
2021/08/16 02:19:23;;;;;;;12.15;6.18;;;16.90;99.90;;;;;;4987545;28;20062;-80
2021/08/16 02:21:50;;;;;;;11.02;6.07;;;16.80;99.90;;;;;;4989188;28;20627;-79
2021/08/16 02:24:17;;;;;;;11.90;6.07;;;16.80;99.90;;;;;;4980232;28;20185;-80
2021/08/16 02:26:44;;;;;;;15.10;6.32;;;16.80;99.90;;;;;;4980210;28;20046;-81
2021/08/16 02:29:14;;;;;;;12.00;6.63;;;16.70;99.90;;;;;;4991553;28;20108;-81
2021/08/16 02:31:40;;;;;;;12.32;6.75;;;16.70;99.90;;;;;;4988158;28;21759;-81
2021/08/16 02:34:07;;;;;;;12.77;6.45;;;16.70;99.90;;;;;;4975563;28;20037;-80
2021/08/16 02:36:35;;;;;;;12.80;7.32;;;16.70;99.90;;;;;;4975590;28;20046;-80
2021/08/16 02:39:02;;;;;;;11.80;6.93;;;16.70;99.90;;;;;;4973748;28;20049;-79
2021/08/16 02:41:30;;;;;;;11.88;6.57;;;16.80;99.90;;;;;;4990369;28;20152;-79
2021/08/16 02:43:56;;;;;;;15.80;7.50;;;16.70;99.90;;;;;;4972788;28;20050;-81
2021/08/16 02:46:23;;;;;;;12.43;6.78;;;16.60;99.90;;;;;;4971547;28;20054;-80
2021/08/16 02:48:51;;;;;;;13.77;7.25;;;16.60;99.90;;;;;;4971298;28;20105;-79
2021/08/16 02:51:17;;;;;;;17.45;8.60;;;16.50;99.90;;;;;;4971041;28;20196;-80
2021/08/16 02:53:44;;;;;;;13.85;7.60;;;16.40;99.90;;;;;;4971221;28;20077;-80
2021/08/16 02:56:11;;;;;;;17.08;7.80;;;16.30;99.90;;;;;;4977546;28;20061;-80
2021/08/16 02:58:38;;;;;;;14.20;7.55;;;16.30;99.90;;;;;;4971780;28;20052;-79
2021/08/16 03:01:05;;;;;;;11.65;8.40;;;16.20;99.90;;;;;;4990562;28;20038;-80
2021/08/16 03:03:32;;;;;;;17.25;8.52;;;16.20;99.90;;;;;;4967702;28;20058;-80
2021/08/16 03:06:01;;;;;;;14.90;8.75;;;16.20;99.90;;;;;;4982393;28;20077;-79
2021/08/16 03:08:29;;;;;;;13.88;8.40;;;16.10;99.90;;;;;;4991313;28;20108;-79
2021/08/16 03:10:56;;;;;;;16.98;9.25;;;16.00;99.90;;;;;;4971356;28;20041;-80
2021/08/16 03:13:23;;;;;;;14.00;8.25;;;16.00;99.90;;;;;;4986018;28;20043;-80
2021/08/16 03:15:49;;;;;;;15.15;8.48;;;15.90;99.90;;;;;;4987766;28;20077;-80
2021/08/16 03:18:16;;;;;;;15.23;8.70;;;15.90;99.90;;;;;;4988966;28;20325;-79
2021/08/16 03:20:43;;;;;;;14.77;8.65;;;15.90;99.90;;;;;;4990791;28;20039;-79
2021/08/16 03:23:10;;;;;;;17.33;9.10;;;15.90;99.90;;;;;;4974866;28;20058;-80
2021/08/16 03:25:36;;;;;;;12.10;8.07;;;15.90;99.90;;;;;;4976459;28;20058;-79
2021/08/16 03:28:04;;;;;;;14.38;8.30;;;16.00;99.90;;;;;;4980008;28;20058;-81
2021/08/16 03:30:31;;;;;;;15.23;10.38;;;15.90;99.90;;;;;;4957063;28;20112;-80
2021/08/16 03:32:58;;;;;;;15.90;11.18;;;15.90;99.90;;;;;;4973002;28;20510;-80
2021/08/16 03:35:25;;;;;;;20.17;12.00;;;15.80;99.90;;;;;;4975773;28;20050;-81
2021/08/16 03:37:51;;;;;;;19.80;12.02;;;15.80;99.90;;;;;;4977341;28;20089;-78
2021/08/16 03:40:19;;;;;;;16.55;12.07;;;15.80;99.90;;;;;;4971511;28;20426;-81
2021/08/16 03:42:45;;;;;;;22.23;13.30;;;15.80;99.90;;;;;;4980741;28;20039;-80
2021/08/16 03:45:16;;;;;;;20.63;12.77;;;15.80;99.90;;;;;;4971252;28;20035;-79
2021/08/16 03:47:44;;;;;;;15.90;11.50;;;15.70;99.90;;;;;;4986842;28;20069;-79
2021/08/16 03:50:11;;;;;;;21.50;12.93;;;15.70;99.90;;;;;;4988152;28;20058;-80
2021/08/16 03:52:38;;;;;;;18.85;12.10;;;15.70;99.90;;;;;;4985594;28;20126;-80
2021/08/16 03:55:05;;;;;;;17.65;11.95;;;15.60;99.90;;;;;;4981272;28;20049;-79
2021/08/16 03:57:32;;;;;;;25.08;12.88;;;15.70;99.90;;;;;;5007144;28;20449;-79
2021/08/16 03:59:59;;;;;;;22.17;13.18;;;15.70;99.90;;;;;;4990783;28;20588;-80
2021/08/16 04:02:26;;;;;;;20.67;11.48;;;15.60;99.90;;;;;;4990462;28;20043;-80
2021/08/16 04:04:53;;;;;;;17.92;12.02;;;15.60;99.90;;;;;;5001841;28;20698;-80
2021/08/16 04:07:20;;;;;;;16.90;10.77;;;15.60;99.90;;;;;;4988638;28;20053;-80
2021/08/16 04:09:47;;;;;;;16.05;10.45;;;15.50;99.90;;;;;;4989287;28;20046;-81
2021/08/16 04:12:15;;;;;;;14.73;8.43;;;15.50;99.90;;;;;;4988122;28;20099;-81
2021/08/16 04:14:42;;;;;;;13.80;9.00;;;15.40;99.90;;;;;;4987532;28;20526;-80
2021/08/16 04:17:09;;;;;;;16.38;8.07;;;15.30;99.90;;;;;;4963030;28;20085;-80
2021/08/16 04:19:35;;;;;;;9.48;6.32;;;15.30;99.90;;;;;;4976148;28;20050;-82
2021/08/16 04:22:02;;;;;;;13.98;5.90;;;15.20;99.90;;;;;;4993271;28;20153;-81
2021/08/16 04:24:29;;;;;;;9.65;6.00;;;15.10;99.90;;;;;;4972364;28;20104;-80
2021/08/16 04:26:56;;;;;;;11.65;5.38;;;15.00;99.90;;;;;;4980084;28;20050;-80
2021/08/16 04:29:23;;;;;;;11.43;5.82;;;15.00;99.90;;;;;;4960674;28;20061;-80
2021/08/16 04:31:50;;;;;;;8.23;5.53;;;15.00;99.90;;;;;;4975597;28;20066;-80
2021/08/16 04:34:16;;;;;;;10.13;5.47;;;14.80;99.90;;;;;;4978837;28;20409;-80
2021/08/16 04:36:43;;;;;;;10.25;5.30;;;14.80;99.90;;;;;;4967882;28;20100;-79
2021/08/16 04:39:10;;;;;;;10.00;5.32;;;14.80;99.90;;;;;;4993192;28;20054;-80
2021/08/16 04:41:37;;;;;;;11.05;5.10;;;14.70;99.90;;;;;;4982939;28;20105;-79
2021/08/16 04:44:04;;;;;;;11.63;5.88;;;14.80;99.90;;;;;;4974127;28;20085;-80
2021/08/16 04:46:30;;;;;;;12.57;5.72;;;14.80;99.90;;;;;;4959847;28;20501;-80
2021/08/16 04:48:57;;;;;;;11.13;6.07;;;14.90;99.90;;;;;;4992967;28;20085;-79
2021/08/16 04:51:24;;;;;;;11.45;5.93;;;15.00;99.90;;;;;;4990007;28;20148;-80
2021/08/16 04:53:51;;;;;;;12.43;5.82;;;15.00;99.90;;;;;;4976826;28;20050;-79
2021/08/16 04:56:18;;;;;;;11.70;5.38;;;15.00;99.90;;;;;;4977246;28;20487;-79
2021/08/16 04:58:44;;;;;;;14.70;5.57;;;15.00;99.90;;;;;;4975491;28;20141;-80
2021/08/16 05:01:11;;;;;;;13.25;6.00;;;15.10;99.90;;;;;;4958521;28;20042;-81
2021/08/16 05:03:38;;;;;;;15.98;5.32;;;15.10;99.90;;;;;;4991421;28;20054;-80
2021/08/16 05:06:07;;;;;;;11.93;5.78;;;15.10;99.90;;;;;;5001412;28;20053;-81
2021/08/16 05:08:35;;;;;;;18.60;6.57;;;15.10;99.90;;;;;;4961804;28;20047;-80
2021/08/16 05:11:04;;;;;;;16.30;6.38;;;15.10;99.90;;;;;;4998075;28;20046;-80
2021/08/16 05:13:31;;;;;;;19.20;7.53;;;15.10;99.90;;;;;;5005501;28;20401;-80
2021/08/16 05:15:58;;;;;;;19.10;7.47;;;15.00;99.90;;;;;;5011640;28;20042;-80
2021/08/16 05:18:25;;;;;;;14.05;6.95;;;15.00;99.90;;;;;;4981898;28;20122;-79
2021/08/16 05:20:52;;;;;;;14.93;7.13;;;14.90;99.90;;;;;;4991196;28;20066;-80
2021/08/16 05:23:19;;;;;;;15.38;8.10;;;14.90;99.90;;;;;;4997052;28;20042;-80
2021/08/16 05:25:49;;;;;;;15.77;8.30;;;14.90;99.90;;;;;;4972090;28;20053;-80
2021/08/16 05:28:16;;;;;;;14.10;6.95;;;14.80;99.90;;;;;;4987159;28;20050;-79
2021/08/16 05:30:43;;;;;;;17.38;7.95;;;14.90;99.90;;;;;;4989584;28;20046;-80
2021/08/16 05:33:09;;;;;;;15.77;6.88;;;14.90;99.90;;;;;;4972884;28;20046;-80
2021/08/16 05:35:36;;;;;;;15.82;7.88;;;14.90;99.90;;;;;;4999259;28;20054;-82
2021/08/16 05:38:04;;;;;;;16.05;8.35;;;14.90;99.90;;;;;;4978431;28;20058;-79
2021/08/16 05:40:30;;;;;;;17.92;6.68;;;14.90;99.90;;;;;;4974829;28;20529;-79
2021/08/16 05:42:57;;;;;;;13.35;6.75;;;14.90;99.90;;;;;;4980369;28;20050;-80
2021/08/16 05:45:24;;;;;;;13.02;6.35;;;15.00;99.90;;;;;;4973446;28;20054;-80
2021/08/16 05:47:51;;;;;;;14.57;7.32;;;15.00;99.90;;;;;;4988316;28;20041;-79
2021/08/16 05:50:18;;;;;;;19.33;7.38;;;15.00;99.90;;;;;;4981854;28;20077;-79
2021/08/16 05:52:45;;;;;;;14.00;6.72;;;15.00;99.90;;;;;;4972769;28;20589;-79
2021/08/16 05:55:12;;;;;;;15.23;6.50;;;15.00;99.90;;;;;;4985347;28;20489;-79
2021/08/16 05:57:39;;;;;;;9.80;7.40;;;15.00;99.90;;;;;;5009146;28;20061;-80
2021/08/16 06:00:07;;;;;;;16.17;6.45;;;15.10;99.90;;;;;;5009152;28;20381;-80
2021/08/16 06:02:34;;;;;;;20.10;7.78;;;15.10;99.90;;;;;;4975977;28;20113;-80
2021/08/16 06:05:03;;;;;;;14.35;7.57;;;15.10;99.90;;;;;;4977540;28;20241;-80
2021/08/16 06:07:30;;;;;;;15.85;6.85;;;15.10;99.90;;;;;;4976582;28;20196;-80
2021/08/16 06:10:02;;;;;;;16.15;6.75;;;15.10;99.90;;;;;;4977760;28;20212;-79
2021/08/16 06:12:29;;;;;;;22.00;8.63;;;15.10;99.90;;;;;;4999188;28;20061;-80
2021/08/16 06:14:56;;;;;;;17.60;8.02;;;15.10;99.90;;;;;;4992499;28;20052;-81
2021/08/16 06:17:24;;;;;;;17.63;8.48;;;15.20;99.90;;;;;;4958897;28;20223;-80
2021/08/16 06:19:50;;;;;;;23.80;8.75;;;15.10;99.90;;;;;;4986588;28;20066;-81
2021/08/16 06:22:17;;;;;;;10.10;8.13;;;15.20;99.90;;;;;;4986711;28;20042;-80
2021/08/16 06:24:44;;;;;;;18.13;8.77;;;15.20;99.90;;;;;;4980074;28;20482;-81
2021/08/16 06:27:11;;;;;;;18.33;9.05;;;15.30;99.90;;;;;;4975233;28;20058;-81
2021/08/16 06:29:38;;;;;;;18.48;8.05;;;15.20;99.90;;;;;;4994218;28;20049;-81
2021/08/16 06:32:04;;;;;;;17.15;8.80;;;15.20;99.90;;;;;;5008940;28;20192;-81
2021/08/16 06:34:31;;;;;;;14.52;8.50;;;15.30;99.90;;;;;;4999419;28;20108;-81
2021/08/16 06:36:58;;;;;;;19.67;9.05;;;15.30;99.90;;;;;;4971879;28;20490;-81
2021/08/16 06:39:28;;;;;;;22.45;9.00;;;15.30;99.90;;;;;;4976067;28;20046;-81
2021/08/16 06:41:57;;;;;;;14.13;8.05;;;15.30;99.90;;;;;;4991598;28;20050;-80
2021/08/16 06:44:25;;;;;;;13.82;9.15;;;15.40;99.90;;;;;;4986565;28;20056;-80
2021/08/16 06:46:54;;;;;;;14.38;8.10;;;15.40;99.90;;;;;;4989744;28;20050;-80
2021/08/16 06:49:21;;;;;;;14.93;8.15;;;15.30;99.90;;;;;;4973165;28;20076;-80
2021/08/16 06:51:48;;;;;;;19.05;9.93;;;15.30;99.90;;;;;;4971696;28;20054;-81
2021/08/16 06:54:15;;;;;;;14.13;9.10;;;15.30;99.90;;;;;;4962417;28;20050;-81
2021/08/16 06:57:03;;;;;;;19.80;8.90;;;15.30;99.90;;;;;;5005418;28;20080;-81
2021/08/16 06:59:32;;;;;;;14.53;9.00;;;15.30;99.90;;;;;;4992210;28;20050;-81
2021/08/16 07:02:00;;;;;;;19.08;9.80;;;15.30;99.90;;;;;;5007383;28;20050;-81
2021/08/16 07:04:27;;;;;;;17.08;10.60;;;15.30;99.90;;;;;;4983703;28;20046;-79
2021/08/16 07:06:54;;;;;;;18.25;9.52;;;15.30;99.90;;;;;;4970103;28;20089;-81
2021/08/16 07:09:21;;;;;;;19.73;9.85;;;15.40;99.90;;;;;;4979520;28;20327;-81
2021/08/16 07:11:48;;;;;;;15.30;9.82;;;15.40;99.90;;;;;;4998592;28;20134;-81
2021/08/16 07:14:15;;;;;;;19.42;11.02;;;15.50;99.90;;;;;;4971949;28;20053;-81
2021/08/16 07:16:42;;;;;;;18.63;10.95;;;15.50;99.90;;;;;;4969417;28;20092;-81
2021/08/16 07:19:09;;;;;;;17.73;10.23;;;15.50;99.90;;;;;;4972059;28;20065;-81
2021/08/16 07:21:36;;;;;;;18.67;10.98;;;15.50;99.90;;;;;;4971128;28;20042;-81
2021/08/16 07:24:03;;;;;;;22.42;11.85;;;15.60;99.90;;;;;;4995430;28;20065;-81
2021/08/16 07:26:30;;;;;;;20.05;12.30;;;15.70;99.90;;;;;;5002379;28;20061;-81
2021/08/16 07:28:57;;;;;;;21.02;11.70;;;15.70;99.90;;;;;;4992030;28;20419;-81
2021/08/16 07:31:23;;;;;;;22.30;12.32;;;15.70;99.90;;;;;;5007017;28;20065;-81
2021/08/16 07:33:51;;;;;;;16.73;11.10;;;15.80;99.90;;;;;;4979020;28;20436;-82
2021/08/16 07:36:18;;;;;;;23.55;12.25;;;15.80;99.90;;;;;;4977494;28;20161;-81
2021/08/16 07:38:45;;;;;;;16.85;11.82;;;15.90;99.90;;;;;;4971631;28;20050;-81
2021/08/16 07:41:12;;;;;;;21.33;12.20;;;15.90;99.90;;;;;;4997998;28;20049;-81
2021/08/16 07:43:40;;;;;;;19.67;11.88;;;16.10;99.90;;;;;;5004379;28;20054;-80
2021/08/16 07:46:07;;;;;;;18.10;11.90;;;16.10;99.90;;;;;;5026862;28;20054;-81
2021/08/16 07:48:34;;;;;;;19.38;11.73;;;16.20;99.90;;;;;;4993297;28;20050;-81
2021/08/16 07:51:00;;;;;;;21.77;12.95;;;16.20;99.90;;;;;;4985379;28;20053;-79
2021/08/16 07:53:27;;;;;;;22.13;13.40;;;16.40;99.90;;;;;;5003377;28;20034;-82
2021/08/16 07:55:54;;;;;;;24.98;13.35;;;16.50;99.90;;;;;;5004520;28;20080;-80
2021/08/16 07:58:21;;;;;;;21.75;12.23;;;16.40;99.90;;;;;;5010591;28;20054;-80
2021/08/16 08:00:47;;;;;;;26.83;13.95;;;16.30;99.90;;;;;;5009610;28;20080;-82
2021/08/16 08:03:14;;;;;;;23.33;14.45;;;16.20;99.90;;;;;;5009834;28;20123;-82
2021/08/16 08:05:41;;;;;;;25.23;14.00;;;16.20;99.90;;;;;;5017504;28;20053;-80
2021/08/16 08:08:08;;;;;;;23.70;15.30;;;16.20;99.90;;;;;;5007589;28;20077;-81
2021/08/16 08:10:35;;;;;;;20.88;13.95;;;16.20;99.90;;;;;;4994838;28;20058;-81
2021/08/16 08:13:02;;;;;;;23.27;14.13;;;16.30;99.90;;;;;;4976027;28;20686;-78
2021/08/16 08:15:29;;;;;;;24.10;15.25;;;16.40;99.90;;;;;;5003301;28;20836;-76
2021/08/16 08:17:56;;;;;;;19.77;13.95;;;16.40;99.90;;;;;;4986391;28;20057;-76
2021/08/16 08:20:23;;;;;;;21.33;13.85;;;16.50;99.90;;;;;;5002677;28;20084;-74
2021/08/16 08:22:50;;;;;;;22.40;15.15;;;16.70;99.90;;;;;;5003441;28;20049;-75
2021/08/16 08:25:17;;;;;;;20.92;14.00;;;16.80;99.90;;;;;;4992763;28;20108;-76
2021/08/16 08:27:44;;;;;;;22.73;15.18;;;17.00;99.90;;;;;;4986227;28;20054;-79
2021/08/16 08:30:11;;;;;;;24.63;15.45;;;16.90;99.90;;;;;;4987589;28;20050;-76
2021/08/16 08:32:53;;;;;;;23.38;15.95;;;16.90;99.90;;;;;;4989411;28;20100;-76
2021/08/16 08:35:20;;;;;;;20.90;14.65;;;16.90;99.90;;;;;;5024081;28;20034;-76
2021/08/16 08:37:48;;;;;;;24.65;15.00;;;16.90;99.90;;;;;;5041510;28;20041;-75
2021/08/16 08:40:18;;;;;;;27.50;15.30;;;17.00;99.90;;;;;;5029673;28;20096;-76
2021/08/16 08:42:52;;;;;;;25.58;15.52;;;17.00;99.90;;;;;;5023475;28;20161;-76
2021/08/16 08:45:24;;;;;;;23.63;14.27;;;17.00;99.90;;;;;;5002809;28;20616;-75
2021/08/16 08:47:52;;;;;;;22.08;14.15;;;16.90;99.90;;;;;;5019280;28;20046;-76
2021/08/16 08:50:20;;;;;;;21.20;14.10;;;16.90;99.90;;;;;;5023912;28;20053;-76
2021/08/16 08:52:50;;;;;;;25.27;13.98;;;16.90;99.90;;;;;;5015472;28;20107;-76
2021/08/16 08:55:17;;;;;;;20.42;14.27;;;16.70;99.90;;;;;;5017979;28;20497;-76
2021/08/16 08:58:05;;;;;;;24.40;14.25;;;16.70;99.90;;;;;;5028014;28;20270;-77
2021/08/16 09:00:33;;;;;;;21.20;14.25;;;16.70;99.90;;;;;;5010631;28;20049;-75
2021/08/16 09:03:03;;;;;;;28.92;16.05;;;16.70;99.90;;;;;;4991469;28;20544;-76
2021/08/16 09:05:31;;;;;;;23.85;13.98;;;16.60;99.90;;;;;;5007981;28;20101;-76
2021/08/16 09:08:01;;;;;;;19.15;14.07;;;16.80;99.90;;;;;;5008245;28;20120;-76
2021/08/16 09:10:28;;;;;;;24.02;13.82;;;16.80;99.90;;;;;;5007781;28;20529;-76
2021/08/16 09:12:58;;;;;;;20.70;12.63;;;16.70;99.90;;;;;;5008539;28;20490;-76
2021/08/16 09:15:29;;;;;;;24.70;14.57;;;16.60;99.90;;;;;;4986695;28;20041;-76
2021/08/16 09:18:02;;;;;;;24.15;15.10;;;16.70;99.90;;;;;;5020025;28;20117;-76
2021/08/16 09:20:33;;;;;;;23.33;14.93;;;16.90;99.90;;;;;;5009416;28;20050;-76
2021/08/16 09:23:14;;;;;;;25.48;13.85;;;17.00;99.90;;;;;;5020194;28;20061;-76
2021/08/16 09:25:53;;;;;;;18.83;13.90;;;17.10;99.90;;;;;;5030933;28;20053;-76
2021/08/16 09:28:32;;;;;;;21.83;15.40;;;17.00;99.90;;;;;;5023426;28;20053;-75
2021/08/16 09:31:18;;;;;;;20.27;14.18;;;16.80;99.90;;;;;;5025959;28;20041;-76
2021/08/16 09:33:55;;;;;;;19.27;12.98;;;16.80;99.90;;;;;;5008996;28;20048;-76
2021/08/16 09:36:37;;;;;;;19.38;13.38;;;16.70;99.90;;;;;;5027190;28;20057;-75
2021/08/16 09:39:20;;;;;;;17.90;13.35;;;16.60;99.90;;;;;;5008924;28;20054;-76
2021/08/16 09:41:55;;;;;;;18.55;12.98;;;16.60;99.90;;;;;;5024341;28;20254;-75
2021/08/16 09:44:21;;;;;;;;;;;16.70;99.90;;;;;;5026994;28;20080;-76
2021/08/16 09:47:00;;;;;;;17.88;12.50;;;16.80;99.90;;;;;;5035692;28;19921;-76
2021/08/16 09:49:27;;;;;;;17.75;12.57;;;16.90;99.90;;;;;;4988731;28;20537;-76
2021/08/16 09:52:06;;;;;;;21.85;12.88;;;17.00;99.90;;;;;;5006104;28;20398;-76
2021/08/16 09:54:36;;;;;;;14.85;12.90;;;17.00;99.90;;;;;;5014670;28;20144;-76
2021/08/16 09:57:07;;;;;;;18.30;12.65;;;17.20;99.90;;;;;;4985284;28;20100;-75
2021/08/16 09:59:34;;;;;;;17.63;12.75;;;17.20;99.90;;;;;;5004244;28;20050;-76
2021/08/16 10:02:02;;;;;;;22.95;12.95;;;17.20;99.90;;;;;;5002854;28;20132;-77
2021/08/16 10:04:31;;;;;;;14.65;11.73;;;17.40;99.90;;;;;;5003973;28;20571;-75
2021/08/16 10:07:01;;;;;;;14.20;12.13;;;17.70;99.90;;;;;;5005143;28;20550;-76
2021/08/16 10:09:50;;;;;;;15.57;12.37;;;17.90;99.90;;;;;;4987821;28;20078;-76
2021/08/16 10:12:18;;;;;;;13.45;11.98;;;18.20;99.90;;;;;;5003580;28;20053;-75
2021/08/16 10:14:48;;;;;;;12.88;11.00;;;18.40;99.90;;;;;;5003615;28;20062;-76
2021/08/16 10:17:24;;;;;;;12.13;10.88;;;18.40;99.90;;;;;;5013185;28;20069;-77
2021/08/16 10:19:53;;;;;;;10.30;8.60;;;18.50;99.90;;;;;;5004852;28;20467;-77
2021/08/16 10:22:20;;;;;;;12.82;9.15;;;18.40;99.90;;;;;;4987938;28;20054;-76
2021/08/16 10:24:46;;;;;;;11.18;9.18;;;18.30;99.90;;;;;;4996561;28;20042;-76
2021/08/16 10:27:13;;;;;;;11.73;8.70;;;18.20;99.90;;;;;;4984642;28;20046;-76
2021/08/16 10:29:41;;;;;;;9.38;8.45;;;18.20;99.90;;;;;;4985947;28;20393;-76
2021/08/16 10:32:17;;;;;;;13.35;9.30;;;18.00;99.90;;;;;;5003320;28;20054;-76
2021/08/16 10:34:44;;;;;;;10.95;8.45;;;18.00;99.90;;;;;;4987774;28;20053;-76
2021/08/16 10:37:12;;;;;;;11.55;9.02;;;18.00;99.90;;;;;;4986814;28;20038;-77
2021/08/16 10:39:46;;;;;;;11.13;8.82;;;17.90;99.90;;;;;;4969497;28;20096;-76
2021/08/16 10:42:16;;;;;;;13.75;8.90;;;17.90;99.90;;;;;;4987448;28;20529;-76
2021/08/16 10:44:45;;;;;;;8.40;7.47;;;17.80;99.90;;;;;;4986458;28;20042;-76
2021/08/16 10:47:25;;;;;;;16.52;8.65;;;17.50;99.90;;;;;;4997770;28;20047;-76
2021/08/16 10:50:03;;;;;;;10.82;7.57;;;17.50;99.90;;;;;;4987102;28;20046;-76
2021/08/16 10:52:30;;;;;;;11.75;7.57;;;17.50;99.90;;;;;;4987537;28;20057;-75
2021/08/16 10:55:17;;;;;;;10.43;7.45;;;17.50;99.90;;;;;;4991625;28;20054;-75
2021/08/16 10:57:44;;;;;;;13.15;7.25;;;17.50;99.90;;;;;;4963558;28;20478;-75
2021/08/16 11:00:14;;;;;;;11.52;7.60;;;17.50;99.90;;;;;;4947533;28;20053;-75
2021/08/16 11:02:42;;;;;;;14.65;7.90;;;17.10;99.90;;;;;;4964414;28;20509;-76
2021/08/16 11:05:11;;;;;;;12.25;8.35;;;16.60;99.90;;;;;;4979976;28;20116;-76
2021/08/16 11:07:40;;;;;;;13.07;7.50;;;16.40;99.90;;;;;;4999504;28;20050;-77
2021/08/16 11:10:10;;;;;;;14.05;7.63;;;16.40;99.90;;;;;;4966678;28;20064;-75
2021/08/16 11:12:45;;;;;;;10.45;6.40;;;16.70;99.90;;;;;;4983000;28;20096;-76
2021/08/16 11:15:15;;;;;;;8.40;6.70;;;16.90;99.90;;;;;;4969490;28;20054;-76
2021/08/16 11:17:42;;;;;;;17.77;7.15;;;17.10;99.90;;;;;;4992484;28;20050;-76
2021/08/16 11:20:15;;;;;;;7.63;6.80;;;17.20;99.90;;;;;;4985327;28;20073;-77
2021/08/16 11:22:53;;;;;;;11.57;7.45;;;17.30;99.90;;;;;;5002065;28;20042;-75
2021/08/16 11:25:20;;;;;;;7.35;6.28;;;17.50;99.90;;;;;;5012785;28;20053;-75
2021/08/16 11:27:47;;;;;;;13.15;7.00;;;17.50;99.90;;;;;;5022723;28;20123;-80
2021/08/16 11:30:15;;;;;;;9.23;7.20;;;17.50;99.90;;;;;;5006374;28;20449;-77
2021/08/16 11:32:42;;;;;;;15.45;8.95;;;17.40;99.90;;;;;;4995310;28;20104;-77
2021/08/16 11:35:10;;;;;;;9.55;7.97;;;17.20;99.90;;;;;;5003560;28;20465;-80
2021/08/16 11:37:44;;;;;;;13.73;10.43;;;16.60;99.90;;;;;;5004733;28;20057;-84
2021/08/16 11:40:11;;;;;;;17.77;12.18;;;16.20;99.90;;;;;;5020680;28;20080;-82
2021/08/16 11:42:58;;;;;;;21.25;13.90;;;16.10;99.90;;;;;;4998130;28;20108;-82
2021/08/16 11:45:24;;;;;;;17.92;12.52;;;16.20;99.90;;;;;;4979381;28;20045;-84
2021/08/16 11:47:52;;;;;;;18.05;11.57;;;16.10;99.90;;;;;;4985057;28;20067;-84
2021/08/16 11:50:26;;;;;;;20.02;11.23;;;16.00;99.90;;;;;;4981618;28;20116;-85
2021/08/16 11:52:55;;;;;;;19.63;11.98;;;16.10;99.90;;;;;;4998101;28;20061;-86
2021/08/16 11:55:27;;;;;;;23.58;13.25;;;15.90;99.90;;;;;;4996321;28;20055;-82
2021/08/16 11:57:56;;;;;;;21.02;13.18;;;15.90;99.90;;;;;;4989330;28;20256;-82
2021/08/16 12:00:28;;;;;;;8.90;5.80;;;15.90;99.90;;;;;;4992131;28;20079;-81
2021/08/16 12:02:57;;;;;;;4.95;2.20;;;15.60;99.90;;;;;;5009226;28;20052;-82
2021/08/16 12:05:28;;;;;;;1.88;0.80;;;15.10;99.90;;;;;;4989196;28;20522;-81
2021/08/16 12:07:56;;;;;;;1.90;1.27;;;14.70;99.90;;;;;;4987968;28;20050;-81
2021/08/16 12:10:27;;;;;;;1.80;1.23;;;14.50;99.90;;;;;;4973681;28;20054;-82
2021/08/16 12:13:02;;;;;;;1.75;1.38;;;14.50;99.90;;;;;;4991752;28;20125;-82
2021/08/16 12:15:43;;;;;;;3.38;1.77;;;14.30;99.90;;;;;;4976112;28;20136;-81
2021/08/16 12:18:11;;;;;;;3.40;1.92;;;14.00;99.90;;;;;;5001150;28;20130;-83
2021/08/16 12:20:51;;;;;;;4.68;2.70;;;14.10;99.90;;;;;;4992863;28;20045;-82
2021/08/16 12:23:35;;;;;;;6.60;4.60;;;13.90;99.90;;;;;;5027221;28;20113;-82
2021/08/16 12:26:06;;;;;;;8.07;4.95;;;13.90;99.90;;;;;;4997985;28;20398;-82
2021/08/16 12:28:37;;;;;;;10.25;5.20;;;14.00;99.90;;;;;;4994957;28;20038;-81
2021/08/16 12:31:21;;;;;;;10.95;5.93;;;14.00;99.90;;;;;;5012435;28;20153;-82
2021/08/16 12:34:00;;;;;;;14.07;7.97;;;14.00;99.90;;;;;;4996115;28;20260;-80
2021/08/16 12:36:38;;;;;;;15.60;7.70;;;14.00;99.90;;;;;;5013554;28;20056;-81
2021/08/16 12:39:14;;;;;;;13.25;8.30;;;14.00;99.90;;;;;;4996733;28;20332;-83
2021/08/16 12:42:07;;;;;;;16.63;8.38;;;14.10;99.90;;;;;;4996216;28;20112;-83
2021/08/16 12:44:53;;;;;;;15.02;8.80;;;14.00;99.90;;;;;;4998772;28;20351;-82